createdAt,value
2022-10-05T00:01:36.132Z,19.32
2022-10-05T00:04:23.809Z,19.36
2022-10-05T00:07:16.093Z,19.60
2022-10-05T00:09:46.163Z,19.44
2022-10-05T00:12:23.760Z,19.48
2022-10-05T00:15:02.651Z,20.16
2022-10-05T00:17:32.569Z,19.77
2022-10-05T00:20:00.200Z,19.92
2022-10-05T00:22:33.612Z,20.15
2022-10-05T00:25:10.690Z,20.07
2022-10-05T00:27:39.053Z,20.11
2022-10-05T00:30:21.619Z,16.81
2022-10-05T00:32:49.142Z,16.58
2022-10-05T00:35:19.431Z,17.69
2022-10-05T00:37:54.616Z,18.29
2022-10-05T00:40:33.784Z,18.58
2022-10-05T00:43:40.636Z,18.88
2022-10-05T00:46:48.031Z,19.03
2022-10-05T00:49:26.542Z,17.08
2022-10-05T00:52:13.616Z,17.08
2022-10-05T00:55:01.133Z,18.01
2022-10-05T00:57:28.191Z,18.37
2022-10-05T01:00:14.359Z,18.50
2022-10-05T01:03:30.331Z,18.26
2022-10-05T01:06:26.134Z,18.15
2022-10-05T01:09:47.212Z,18.40
2022-10-05T01:12:54.681Z,18.46
2022-10-05T01:15:37.168Z,18.58
2022-10-05T01:18:26.406Z,18.67
2022-10-05T01:21:26.517Z,18.95
2022-10-05T01:24:15.548Z,18.63
2022-10-05T01:27:35.382Z,19.00
2022-10-05T01:30:15.945Z,18.70
2022-10-05T01:32:57.842Z,19.27
2022-10-05T01:35:46.627Z,18.42
2022-10-05T01:38:45.846Z,18.55
2022-10-05T01:41:20.591Z,19.18
2022-10-05T01:44:01.842Z,19.02
2022-10-05T01:47:03.388Z,19.20
2022-10-05T01:49:48.023Z,19.00
2022-10-05T01:53:05.686Z,19.47
2022-10-05T01:55:55.166Z,18.94
2022-10-05T01:58:40.458Z,18.97
2022-10-05T02:01:59.790Z,19.06
2022-10-05T02:05:03.320Z,19.44
2022-10-05T02:07:44.866Z,19.46
2022-10-05T02:10:59.692Z,19.33
2022-10-05T02:13:45.076Z,19.19
2022-10-05T02:16:38.377Z,19.32
2022-10-05T02:19:16.330Z,19.56
2022-10-05T02:21:58.862Z,19.52
2022-10-05T02:24:45.181Z,19.48
2022-10-05T02:27:33.969Z,19.25
2022-10-05T02:30:16.329Z,19.59
2022-10-05T02:33:12.074Z,19.78
2022-10-05T02:35:51.729Z,19.45
2022-10-05T02:39:06.461Z,19.26
2022-10-05T02:42:04.037Z,19.33
2022-10-05T02:45:14.428Z,19.34
2022-10-05T02:47:58.591Z,19.78
2022-10-05T02:50:39.453Z,19.22
2022-10-05T02:53:32.053Z,18.31
2022-10-05T02:56:26.507Z,18.54
2022-10-05T02:59:28.702Z,19.18
2022-10-05T03:02:38.885Z,18.82
2022-10-05T03:05:48.244Z,18.58
2022-10-05T03:08:40.679Z,19.14
2022-10-05T03:11:28.870Z,18.95
2022-10-05T03:14:11.830Z,18.97
2022-10-05T03:17:07.338Z,19.17
2022-10-05T03:20:13.106Z,19.17
2022-10-05T03:23:06.521Z,19.26
2022-10-05T03:26:07.293Z,18.93
2022-10-05T03:29:01.407Z,18.81
2022-10-05T03:32:02.529Z,19.49
2022-10-05T03:34:50.229Z,19.30
2022-10-05T03:37:46.872Z,18.48
2022-10-05T03:40:41.870Z,17.96
2022-10-05T03:44:02.591Z,18.81
2022-10-05T03:47:02.874Z,19.12
2022-10-05T03:49:42.121Z,19.17
2022-10-05T03:52:30.788Z,18.84
2022-10-05T03:55:24.610Z,18.64
2022-10-05T03:58:00.432Z,18.49
2022-10-05T04:00:32.177Z,18.87
2022-10-05T04:03:45.539Z,19.37
2022-10-05T04:06:35.175Z,19.13
2022-10-05T04:09:25.605Z,19.16
2022-10-05T04:12:43.675Z,19.36
2022-10-05T04:15:50.902Z,19.10
2022-10-05T04:18:45.995Z,18.63
2022-10-05T04:21:46.634Z,19.05
2022-10-05T04:24:36.228Z,19.04
2022-10-05T04:27:23.328Z,18.98
2022-10-05T04:30:06.629Z,18.94
2022-10-05T04:32:52.394Z,19.12
2022-10-05T04:36:05.952Z,19.39
2022-10-05T04:39:07.000Z,18.89
2022-10-05T04:42:00.683Z,17.89
2022-10-05T04:45:12.055Z,18.76
2022-10-05T04:48:13.252Z,18.88
2022-10-05T04:51:05.226Z,18.75
2022-10-05T04:54:16.039Z,18.79
2022-10-05T04:57:05.094Z,18.30
2022-10-05T04:59:45.176Z,18.33
2022-10-05T05:02:33.087Z,18.90
2022-10-05T05:05:32.284Z,18.89
2022-10-05T05:08:36.982Z,19.00
2022-10-05T05:11:23.776Z,19.15
2022-10-05T05:14:35.835Z,18.32
2022-10-05T05:17:17.252Z,18.33
2022-10-05T05:20:41.362Z,18.02
2022-10-05T05:23:48.049Z,18.48
2022-10-05T05:27:17.721Z,18.80
2022-10-05T05:30:20.639Z,19.06
2022-10-05T05:33:27.397Z,18.92
2022-10-05T05:43:16.661Z,18.78
2022-10-05T05:46:19.356Z,19.00
2022-10-05T05:49:51.853Z,19.36
2022-10-05T05:52:53.633Z,19.53
2022-10-05T05:56:21.476Z,18.97
2022-10-05T06:03:14.528Z,18.85
2022-10-05T06:06:04.418Z,19.16
2022-10-05T06:09:26.684Z,19.36
2022-10-05T06:12:22.489Z,19.88
2022-10-05T06:15:32.649Z,19.60
2022-10-05T06:18:33.528Z,19.68
2022-10-05T06:21:48.781Z,19.50
2022-10-05T06:25:15.293Z,19.92
2022-10-05T06:28:32.921Z,19.31
2022-10-05T06:32:04.843Z,17.71
2022-10-05T06:35:24.372Z,17.96
2022-10-05T06:38:34.427Z,19.08
2022-10-05T06:45:31.600Z,17.78
2022-10-05T06:48:48.325Z,18.11
2022-10-05T06:51:45.758Z,19.78
2022-10-05T06:55:01.611Z,19.42
2022-10-05T06:58:37.135Z,18.83
2022-10-05T07:02:08.186Z,19.68
2022-10-05T07:05:25.437Z,19.30
2022-10-05T07:08:02.819Z,19.20
2022-10-05T07:10:54.100Z,18.88
2022-10-05T07:13:55.401Z,19.78
2022-10-05T07:16:36.315Z,19.42
2022-10-05T07:19:44.923Z,20.52
2022-10-05T07:23:13.364Z,19.55
2022-10-05T07:27:02.599Z,18.72
2022-10-05T07:29:54.382Z,18.90
2022-10-05T07:32:50.894Z,18.76
2022-10-05T07:36:14.791Z,19.00
2022-10-05T07:39:23.540Z,19.52
2022-10-05T07:42:19.599Z,19.61
2022-10-05T07:45:12.006Z,19.86
2022-10-05T07:48:33.427Z,20.15
2022-10-05T07:51:16.108Z,19.42
2022-10-05T07:54:18.807Z,19.81
2022-10-05T07:56:57.807Z,20.12
2022-10-05T07:59:39.686Z,20.20
2022-10-05T08:02:59.147Z,19.88
2022-10-05T08:05:41.271Z,20.77
2022-10-05T08:08:18.194Z,20.04
2022-10-05T08:11:19.027Z,20.03
2022-10-05T08:14:38.034Z,20.46
2022-10-05T08:17:35.404Z,20.37
2022-10-05T08:20:36.674Z,20.41
2022-10-05T08:23:39.500Z,21.03
2022-10-05T08:27:18.265Z,21.29
2022-10-05T08:30:16.500Z,23.51
2022-10-05T08:33:06.844Z,23.15
2022-10-05T08:36:19.090Z,22.73
2022-10-05T08:38:52.309Z,23.20
2022-10-05T08:42:18.128Z,23.99
2022-10-05T08:45:24.703Z,22.41
2022-10-05T08:48:21.148Z,24.95
2022-10-05T08:51:45.965Z,24.96
2022-10-05T08:54:46.710Z,25.54
2022-10-05T08:57:55.645Z,25.95
2022-10-05T09:01:00.582Z,25.68
2022-10-05T09:04:03.779Z,25.88
2022-10-05T09:07:02.686Z,25.96
2022-10-05T09:10:12.899Z,26.12
2022-10-05T09:13:28.334Z,25.97
2022-10-05T09:16:55.121Z,26.27
2022-10-05T09:20:20.880Z,27.35
2022-10-05T09:23:16.313Z,26.05
2022-10-05T09:26:27.504Z,27.32
2022-10-05T09:29:40.974Z,28.13
2022-10-05T09:32:23.164Z,27.48
2022-10-05T09:35:29.857Z,28.95
2022-10-05T09:38:43.714Z,28.00
2022-10-05T09:41:54.335Z,27.51
2022-10-05T09:44:50.122Z,28.35
2022-10-05T09:47:29.135Z,27.94
2022-10-05T09:50:52.093Z,28.75
2022-10-05T09:53:46.811Z,27.43
2022-10-05T09:56:53.868Z,27.00
2022-10-05T10:00:11.491Z,27.84
2022-10-05T10:03:09.903Z,28.24
2022-10-05T10:06:13.035Z,29.56
2022-10-05T10:09:37.858Z,27.37
2022-10-05T10:13:08.749Z,27.29
2022-10-05T10:16:07.593Z,30.71
2022-10-05T10:19:25.611Z,29.37
2022-10-05T10:22:42.825Z,29.47
2022-10-05T10:25:38.101Z,30.70
2022-10-05T10:28:43.358Z,28.75
2022-10-05T10:32:03.265Z,30.92
2022-10-05T10:34:40.284Z,32.67
2022-10-05T10:37:29.989Z,32.85
2022-10-05T10:40:55.366Z,34.42
2022-10-05T10:44:04.741Z,32.93
2022-10-05T10:47:25.037Z,33.31
2022-10-05T10:50:25.974Z,33.35
2022-10-05T10:53:40.152Z,33.74
2022-10-05T10:56:48.387Z,34.52
2022-10-05T10:59:37.073Z,32.47
2022-10-05T11:02:39.652Z,34.44
2022-10-05T11:05:47.999Z,35.57
2022-10-05T11:09:04.687Z,35.85
2022-10-05T11:12:04.579Z,37.24
2022-10-05T11:15:00.338Z,34.68
2022-10-05T11:18:21.731Z,32.07
2022-10-05T11:21:38.886Z,31.18
2022-10-05T11:24:45.976Z,29.36
2022-10-05T11:27:44.464Z,34.59
2022-10-05T11:31:17.837Z,32.28
2022-10-05T11:34:20.637Z,37.93
2022-10-05T11:37:35.312Z,31.79
2022-10-05T11:41:08.840Z,33.11
2022-10-05T11:44:19.470Z,32.69
2022-10-05T11:47:51.097Z,28.79
2022-10-05T11:51:16.081Z,31.25
2022-10-05T11:54:29.524Z,36.53
2022-10-05T11:57:41.430Z,37.28
2022-10-05T12:00:45.241Z,34.55
2022-10-05T12:03:45.641Z,33.52
2022-10-05T12:06:53.760Z,31.16
2022-10-05T12:10:05.951Z,34.09
2022-10-05T12:13:10.034Z,36.38
2022-10-05T12:16:00.208Z,41.21
2022-10-05T12:19:00.889Z,44.87
2022-10-05T12:21:42.488Z,32.35
2022-10-05T12:24:43.176Z,33.91
2022-10-05T12:27:30.054Z,31.08
2022-10-05T12:30:29.685Z,32.78
2022-10-05T12:33:26.117Z,30.77
2022-10-05T12:37:05.238Z,28.12
2022-10-05T12:39:49.141Z,28.49
2022-10-05T12:42:51.574Z,31.29
2022-10-05T12:46:19.652Z,28.48
2022-10-05T12:49:30.227Z,30.39
2022-10-05T12:52:06.096Z,26.96
2022-10-05T12:55:02.341Z,26.69
2022-10-05T12:57:56.796Z,28.04
2022-10-05T13:00:38.243Z,29.24
2022-10-05T13:03:33.455Z,29.16
2022-10-05T13:06:08.101Z,28.66
2022-10-05T13:09:35.512Z,30.36
2022-10-05T13:12:27.145Z,28.68
2022-10-05T13:15:20.183Z,29.33
2022-10-05T13:18:18.260Z,32.39
2022-10-05T13:20:59.816Z,34.00
2022-10-05T13:24:02.472Z,34.18
2022-10-05T13:26:41.501Z,34.00
2022-10-05T13:29:11.595Z,33.24
2022-10-05T13:31:51.063Z,33.75
2022-10-05T13:34:45.883Z,30.58
2022-10-05T13:37:35.590Z,30.29
2022-10-05T13:40:29.605Z,31.94
2022-10-05T13:43:26.295Z,29.56
2022-10-05T13:46:26.578Z,31.04
2022-10-05T13:49:30.411Z,31.21
2022-10-05T13:52:28.345Z,31.42
2022-10-05T13:55:18.678Z,30.46
2022-10-05T13:57:55.355Z,28.80
2022-10-05T14:00:27.091Z,26.96
2022-10-05T14:02:58.010Z,28.57
2022-10-05T14:06:02.293Z,30.14
2022-10-05T14:08:35.697Z,30.73
2022-10-05T14:11:40.390Z,29.01
2022-10-05T14:14:10.549Z,27.78
2022-10-05T14:16:53.297Z,27.00
2022-10-05T14:19:40.874Z,28.06
2022-10-05T14:22:24.796Z,28.89
2022-10-05T14:25:12.969Z,28.94
2022-10-05T14:28:44.114Z,26.28
2022-10-05T14:31:37.135Z,27.72
2022-10-05T14:34:59.140Z,27.65
2022-10-05T14:37:43.455Z,27.40
2022-10-05T14:40:38.386Z,27.30
2022-10-05T14:43:20.487Z,27.17
2022-10-05T14:45:55.953Z,27.62
2022-10-05T14:48:28.086Z,26.39
2022-10-05T14:51:03.550Z,25.74
2022-10-05T14:53:58.821Z,27.83
2022-10-05T14:57:16.160Z,25.86
2022-10-05T15:00:14.590Z,27.10
2022-10-05T15:03:19.084Z,25.87
2022-10-05T15:05:59.383Z,26.42
2022-10-05T15:08:50.026Z,27.06
2022-10-05T15:11:55.596Z,27.57
2022-10-05T15:14:30.283Z,29.56
2022-10-05T15:17:12.471Z,27.98
2022-10-05T15:19:54.430Z,27.85
2022-10-05T15:23:00.574Z,27.35
2022-10-05T15:26:30.305Z,27.03
2022-10-05T15:29:30.296Z,25.53
2022-10-05T15:32:39.204Z,26.37
2022-10-05T15:35:37.645Z,26.98
2022-10-05T15:38:26.692Z,26.69
2022-10-05T15:41:05.270Z,26.03
2022-10-05T15:44:06.463Z,26.19
2022-10-05T15:46:57.242Z,26.19
2022-10-05T15:49:57.361Z,26.18
2022-10-05T15:53:12.153Z,25.74
2022-10-05T15:55:52.553Z,24.99
2022-10-05T15:58:41.558Z,25.46
2022-10-05T16:01:40.416Z,25.46
2022-10-05T16:04:32.012Z,26.24
2022-10-05T16:07:21.962Z,25.83
2022-10-05T16:10:24.101Z,25.46
2022-10-05T16:13:05.150Z,25.50
2022-10-05T16:15:49.271Z,24.78
2022-10-05T16:18:43.483Z,25.86
2022-10-05T16:22:01.690Z,26.55
2022-10-05T16:25:02.037Z,24.18
2022-10-05T16:28:05.845Z,25.88
2022-10-05T16:31:31.279Z,23.78
2022-10-05T16:34:46.960Z,22.77
2022-10-05T16:37:16.538Z,22.88
2022-10-05T16:40:14.482Z,22.30
2022-10-05T16:43:31.124Z,21.84
2022-10-05T16:46:40.315Z,21.84
2022-10-05T16:49:50.089Z,21.81
2022-10-05T16:52:23.838Z,21.52
2022-10-05T16:55:27.152Z,21.11
2022-10-05T16:57:57.880Z,21.04
2022-10-05T17:01:00.074Z,20.74
2022-10-05T17:04:21.102Z,20.67
2022-10-05T17:07:25.762Z,20.46
2022-10-05T17:10:31.306Z,20.68
2022-10-05T17:13:29.324Z,20.52
2022-10-05T17:16:41.536Z,21.05
2022-10-05T17:19:48.796Z,21.34
2022-10-05T17:22:54.042Z,21.44
2022-10-05T17:25:54.276Z,21.49
2022-10-05T17:28:39.556Z,21.51
2022-10-05T17:31:23.181Z,21.97
2022-10-05T17:34:18.832Z,21.43
2022-10-05T17:37:32.115Z,20.13
2022-10-05T17:39:59.674Z,20.17
2022-10-05T17:42:26.991Z,20.11
2022-10-05T17:45:20.553Z,19.98
2022-10-05T17:51:12.940Z,20.59
2022-10-05T17:54:04.555Z,20.08
2022-10-05T17:56:54.542Z,20.10
2022-10-05T17:59:46.121Z,19.39
2022-10-05T18:02:35.273Z,19.66
2022-10-05T18:05:21.165Z,19.84
2022-10-05T18:08:17.545Z,19.09
2022-10-05T18:11:12.878Z,19.77
2022-10-05T18:13:56.268Z,19.78
2022-10-05T18:17:12.003Z,20.29
2022-10-05T18:19:42.788Z,20.65
2022-10-05T18:22:19.381Z,19.70
2022-10-05T18:25:30.696Z,20.19
2022-10-05T18:28:19.202Z,20.54
2022-10-05T18:31:22.357Z,20.57
2022-10-05T18:33:52.230Z,19.02
2022-10-05T18:36:39.397Z,18.93
2022-10-05T18:39:37.203Z,19.00
2022-10-05T18:42:23.155Z,19.08
2022-10-05T18:44:55.077Z,19.38
2022-10-05T18:48:14.751Z,19.73
2022-10-05T18:51:04.659Z,20.12
2022-10-05T18:53:47.351Z,19.59
2022-10-05T18:56:41.270Z,19.70
2022-10-05T18:59:47.515Z,20.18
2022-10-05T19:02:40.664Z,19.92
2022-10-05T19:05:52.089Z,19.80
2022-10-05T19:09:00.033Z,20.02
2022-10-05T19:11:56.444Z,19.49
2022-10-05T19:14:41.622Z,19.44
2022-10-05T19:17:49.890Z,20.23
2022-10-05T19:21:06.018Z,20.38
2022-10-05T19:23:51.417Z,19.28
2022-10-05T19:26:52.867Z,20.11
2022-10-05T19:29:53.176Z,20.31
2022-10-05T19:32:44.960Z,20.34
2022-10-05T19:35:30.059Z,20.69
2022-10-05T19:38:52.680Z,21.08
2022-10-05T19:41:52.363Z,20.99
2022-10-05T19:45:19.026Z,20.92
2022-10-05T19:48:47.668Z,20.91
2022-10-05T19:51:30.597Z,20.57
2022-10-05T19:54:16.746Z,20.88
2022-10-05T19:57:02.274Z,21.12
2022-10-05T19:59:32.391Z,20.89
2022-10-05T20:02:00.217Z,18.67
2022-10-05T20:04:49.674Z,19.82
2022-10-05T20:07:25.983Z,19.92
2022-10-05T20:09:58.911Z,19.54
2022-10-05T20:12:52.573Z,20.24
2022-10-05T20:15:48.491Z,20.14
2022-10-05T20:19:02.489Z,20.58
2022-10-05T20:21:43.656Z,20.64
2022-10-05T20:24:19.548Z,20.09
2022-10-05T20:30:58.029Z,20.94
2022-10-05T20:33:29.587Z,20.15
2022-10-05T20:35:57.635Z,20.68
2022-10-05T20:38:26.168Z,20.77
2022-10-05T20:40:53.537Z,21.01
2022-10-05T20:43:20.562Z,20.51
2022-10-05T20:45:47.829Z,20.95
2022-10-05T20:48:18.972Z,21.07
2022-10-05T20:50:48.925Z,21.09
2022-10-05T20:53:16.101Z,21.32
2022-10-05T20:55:43.616Z,20.67
2022-10-05T20:58:11.582Z,20.79
2022-10-05T21:00:57.421Z,20.75
2022-10-05T21:03:26.323Z,20.75
2022-10-05T21:05:56.383Z,20.78
2022-10-05T21:08:23.637Z,20.10
2022-10-05T21:10:50.855Z,20.54
2022-10-05T21:13:19.755Z,20.30
2022-10-05T21:15:50.240Z,20.09
2022-10-05T21:18:20.600Z,20.21
2022-10-05T21:20:47.964Z,20.39
2022-10-05T21:23:15.232Z,20.61
2022-10-05T21:25:42.559Z,21.05
2022-10-05T21:28:33.672Z,21.08
2022-10-05T21:31:01.237Z,21.02
2022-10-05T21:33:31.858Z,20.82
2022-10-05T21:36:00.057Z,20.65
2022-10-05T21:38:31.630Z,20.80
2022-10-05T21:40:59.013Z,17.78
2022-10-05T21:43:27.565Z,17.68
2022-10-05T21:45:56.587Z,19.13
2022-10-05T21:48:31.178Z,19.39
2022-10-05T21:51:00.300Z,19.52
2022-10-05T21:53:37.754Z,19.44
2022-10-05T21:56:11.484Z,19.32
2022-10-05T21:58:40.906Z,19.45
2022-10-05T22:01:08.758Z,19.62
2022-10-05T22:03:36.136Z,19.87
2022-10-05T22:06:04.321Z,20.02
2022-10-05T22:08:33.575Z,20.02
2022-10-05T22:11:15.903Z,20.10
2022-10-05T22:13:51.164Z,19.92
2022-10-05T22:16:24.321Z,19.91
2022-10-05T22:18:53.719Z,19.92
2022-10-05T22:21:21.912Z,20.05
2022-10-05T22:23:52.270Z,20.32
2022-10-05T22:29:06.505Z,17.36
2022-10-05T22:31:33.801Z,17.86
2022-10-05T22:34:01.461Z,19.33
2022-10-05T22:36:34.050Z,19.78
2022-10-05T22:39:03.673Z,19.89
2022-10-05T22:41:30.857Z,19.58
2022-10-05T22:43:57.840Z,19.51
2022-10-05T22:46:25.165Z,19.40
2022-10-05T22:48:52.375Z,19.46
2022-10-05T22:51:19.700Z,19.74
2022-10-05T22:53:46.779Z,19.87
2022-10-05T22:56:17.390Z,20.32
2022-10-05T22:58:45.912Z,19.73
2022-10-05T23:01:17.395Z,19.33
2022-10-05T23:03:45.606Z,20.34
2022-10-05T23:06:17.851Z,19.92
2022-10-05T23:08:46.184Z,20.05
2022-10-05T23:11:22.004Z,20.25
2022-10-05T23:13:51.389Z,20.25
2022-10-05T23:16:23.003Z,20.41
2022-10-05T23:18:53.080Z,20.39
2022-10-05T23:21:23.328Z,20.44
2022-10-05T23:23:51.432Z,20.33
2022-10-05T23:26:23.882Z,20.37
2022-10-05T23:28:52.162Z,20.42
2022-10-05T23:31:23.308Z,20.48
2022-10-05T23:33:51.608Z,20.35
2022-10-05T23:36:25.721Z,19.26
2022-10-05T23:38:52.822Z,18.84
2022-10-05T23:41:20.840Z,19.59
2022-10-05T23:43:48.455Z,20.31
2022-10-05T23:46:19.872Z,18.50
2022-10-05T23:48:47.083Z,19.38
2022-10-05T23:51:15.650Z,19.81
2022-10-05T23:53:42.876Z,19.41
2022-10-05T23:56:09.847Z,18.97
2022-10-05T23:58:37.169Z,18.91
